createdAt,value
2022-09-23T00:00:44.572Z,90.89
2022-09-23T00:01:44.739Z,90.83
2022-09-23T00:02:44.609Z,90.73
2022-09-23T00:03:44.602Z,90.83
2022-09-23T00:04:44.584Z,90.63
2022-09-23T00:05:44.642Z,90.63
2022-09-23T00:06:44.722Z,90.42
2022-09-23T00:07:44.695Z,90.78
2022-09-23T00:08:44.743Z,91.08
2022-09-23T00:09:44.815Z,91.19
2022-09-23T00:10:44.864Z,90.98
2022-09-23T00:11:44.955Z,91.29
2022-09-23T00:12:44.934Z,91.49
2022-09-23T00:13:45.015Z,91.49
2022-09-23T00:14:44.995Z,91.80
2022-09-23T00:15:45.044Z,91.55
2022-09-23T00:16:45.176Z,91.45
2022-09-23T00:17:45.140Z,91.14
2022-09-23T00:18:45.204Z,90.94
2022-09-23T00:19:45.254Z,90.94
2022-09-23T00:20:45.308Z,90.83
2022-09-23T00:21:45.386Z,90.83
2022-09-23T00:22:45.358Z,90.83
2022-09-23T00:23:45.413Z,90.73
2022-09-23T00:24:45.468Z,90.83
2022-09-23T00:25:45.527Z,90.94
2022-09-23T00:26:45.597Z,90.63
2022-09-23T00:27:45.666Z,90.22
2022-09-23T00:28:45.718Z,90.16
2022-09-23T00:29:45.778Z,90.42
2022-09-23T00:30:45.881Z,90.53
2022-09-23T00:31:45.850Z,90.63
2022-09-23T00:32:45.829Z,90.73
2022-09-23T00:33:45.879Z,90.53
2022-09-23T00:34:45.920Z,90.63
2022-09-23T00:35:45.980Z,90.32
2022-09-23T00:36:46.030Z,90.01
2022-09-23T00:37:46.074Z,90.01
2022-09-23T00:38:46.042Z,89.81
2022-09-23T00:39:46.101Z,89.70
2022-09-23T00:40:46.303Z,89.70
2022-09-23T00:41:46.160Z,89.91
2022-09-23T00:42:46.221Z,90.01
2022-09-23T00:43:46.325Z,90.01
2022-09-23T00:44:46.303Z,89.85
2022-09-23T00:45:46.407Z,90.32
2022-09-23T00:46:46.385Z,90.01
2022-09-23T00:47:46.506Z,90.01
2022-09-23T00:48:46.482Z,90.12
2022-09-23T00:49:46.585Z,90.01
2022-09-23T00:50:46.563Z,90.01
2022-09-23T00:51:46.695Z,90.12
2022-09-23T00:52:46.674Z,89.95
2022-09-23T00:53:46.766Z,90.16
2022-09-23T00:54:46.747Z,90.26
2022-09-23T00:55:46.834Z,90.36
2022-09-23T00:56:46.825Z,90.98
2022-09-23T00:57:46.824Z,91.19
2022-09-23T00:58:46.815Z,91.08
2022-09-23T00:59:46.895Z,91.08
2022-09-23T01:00:46.908Z,91.19
2022-09-23T01:01:46.916Z,90.78
2022-09-23T01:02:46.980Z,90.47
2022-09-23T01:03:46.969Z,90.67
2022-09-23T01:04:47.056Z,90.73
2022-09-23T01:05:47.070Z,90.32
2022-09-23T01:06:47.068Z,90.22
2022-09-23T01:07:47.067Z,90.26
2022-09-23T01:08:47.039Z,90.16
2022-09-23T01:09:47.113Z,90.36
2022-09-23T01:10:47.098Z,90.36
2022-09-23T01:11:47.182Z,90.47
2022-09-23T01:12:47.167Z,90.32
2022-09-23T01:13:47.231Z,90.22
2022-09-23T01:14:47.290Z,90.32
2022-09-23T01:15:47.346Z,90.42
2022-09-23T01:16:47.451Z,90.42
2022-09-23T01:17:47.415Z,90.57
2022-09-23T01:18:47.490Z,90.67
2022-09-23T01:19:47.571Z,90.88
2022-09-23T01:20:47.575Z,90.98
2022-09-23T01:21:47.572Z,91.08
2022-09-23T01:22:47.573Z,91.23
2022-09-23T01:23:47.573Z,91.53
2022-09-23T01:24:47.573Z,91.74
2022-09-23T01:25:47.573Z,92.05
2022-09-23T01:26:47.589Z,92.25
2022-09-23T01:27:47.621Z,92.40
2022-09-23T01:28:47.643Z,92.50
2022-09-23T01:29:47.634Z,92.61
2022-09-23T01:30:47.665Z,92.61
2022-09-23T01:31:47.704Z,92.92
2022-09-23T01:32:47.732Z,93.48
2022-09-23T01:33:47.739Z,93.58
2022-09-23T01:34:47.771Z,93.88
2022-09-23T01:35:47.819Z,93.99
2022-09-23T01:36:47.828Z,94.09
2022-09-23T01:37:47.843Z,94.09
2022-09-23T01:38:47.866Z,94.09
2022-09-23T01:39:47.863Z,94.09
2022-09-23T01:40:47.911Z,94.30
2022-09-23T01:41:47.926Z,94.40
2022-09-23T01:42:47.925Z,94.40
2022-09-23T01:43:47.934Z,94.40
2022-09-23T01:44:47.945Z,94.51
2022-09-23T01:45:47.957Z,94.30
2022-09-23T01:46:47.944Z,94.51
2022-09-23T01:47:47.945Z,94.71
2022-09-23T01:48:48.013Z,94.92
2022-09-23T01:49:47.985Z,94.81
2022-09-23T01:50:48.056Z,94.92
2022-09-23T01:51:48.046Z,94.81
2022-09-23T01:52:48.052Z,94.81
2022-09-23T01:53:48.070Z,94.85
2022-09-23T01:54:48.067Z,94.85
2022-09-23T01:55:48.098Z,94.96
2022-09-23T01:56:48.088Z,95.10
2022-09-23T01:57:48.088Z,95.73
2022-09-23T01:58:48.082Z,96.03
2022-09-23T01:59:48.080Z,96.24
2022-09-23T02:00:48.097Z,96.34
2022-09-23T02:01:48.158Z,96.45
2022-09-23T02:02:48.225Z,96.81
2022-09-23T02:03:48.181Z,96.30
2022-09-23T02:04:48.168Z,96.15
2022-09-23T02:05:48.179Z,95.95
2022-09-23T02:06:48.178Z,95.74
2022-09-23T02:07:48.183Z,95.53
2022-09-23T02:08:48.180Z,95.43
2022-09-23T02:09:48.170Z,95.17
2022-09-23T02:10:48.183Z,95.27
2022-09-23T02:11:48.207Z,95.48
2022-09-23T02:12:48.208Z,95.58
2022-09-23T02:13:48.226Z,95.68
2022-09-23T02:14:48.244Z,95.89
2022-09-23T02:15:48.241Z,96.20
2022-09-23T02:16:48.324Z,96.34
2022-09-23T02:17:48.246Z,96.45
2022-09-23T02:18:48.294Z,96.55
2022-09-23T02:19:48.305Z,96.45
2022-09-23T02:20:48.306Z,96.55
2022-09-23T02:21:48.342Z,96.66
2022-09-23T02:22:48.350Z,96.86
2022-09-23T02:23:48.353Z,96.86
2022-09-23T02:24:48.378Z,96.96
2022-09-23T02:25:48.384Z,97.06
2022-09-23T02:26:48.410Z,96.96
2022-09-23T02:27:48.413Z,96.96
2022-09-23T02:28:48.421Z,97.06
2022-09-23T02:29:48.425Z,97.06
2022-09-23T02:30:48.434Z,97.11
2022-09-23T02:31:48.466Z,97.31
2022-09-23T02:32:48.476Z,97.21
2022-09-23T02:33:48.489Z,97.31
2022-09-23T02:34:48.505Z,97.42
2022-09-23T02:35:48.517Z,97.63
2022-09-23T02:36:48.518Z,97.68
2022-09-23T02:37:48.580Z,97.63
2022-09-23T02:38:48.567Z,97.63
2022-09-23T02:39:48.576Z,97.52
2022-09-23T02:40:48.615Z,97.42
2022-09-23T02:41:48.625Z,97.63
2022-09-23T02:42:48.639Z,97.63
2022-09-23T02:43:48.645Z,97.63
2022-09-23T02:44:48.647Z,97.52
2022-09-23T02:45:48.672Z,97.73
2022-09-23T02:46:48.689Z,97.73
2022-09-23T02:47:48.724Z,97.73
2022-09-23T02:48:48.740Z,97.83
2022-09-23T02:49:48.748Z,98.03
2022-09-23T02:50:48.749Z,98.24
2022-09-23T02:51:48.760Z,98.24
2022-09-23T02:52:48.779Z,97.99
2022-09-23T02:53:48.809Z,97.99
2022-09-23T02:54:48.811Z,97.78
2022-09-23T02:55:48.840Z,97.58
2022-09-23T02:56:48.863Z,97.58
2022-09-23T02:57:48.893Z,97.48
2022-09-23T02:58:48.901Z,97.48
2022-09-23T02:59:48.913Z,97.27
2022-09-23T03:00:48.993Z,96.96
2022-09-23T03:01:48.980Z,96.75
2022-09-23T03:02:48.900Z,96.66
2022-09-23T03:03:49.748Z,96.66
2022-09-23T03:04:49.049Z,96.81
2022-09-23T03:05:49.025Z,96.61
2022-09-23T03:06:49.118Z,96.30
2022-09-23T03:07:49.172Z,96.09
2022-09-23T03:08:49.134Z,95.89
2022-09-23T03:09:49.257Z,95.89
2022-09-23T03:10:49.343Z,95.95
2022-09-23T03:11:49.239Z,95.64
2022-09-23T03:12:49.302Z,95.43
2022-09-23T03:13:49.254Z,95.23
2022-09-23T03:14:49.274Z,95.12
2022-09-23T03:15:49.268Z,94.92
2022-09-23T03:16:49.445Z,94.56
2022-09-23T03:17:49.390Z,94.05
2022-09-23T03:18:49.339Z,93.84
2022-09-23T03:19:49.428Z,93.64
2022-09-23T03:20:49.378Z,93.74
2022-09-23T03:21:49.377Z,93.64
2022-09-23T03:22:49.898Z,93.54
2022-09-23T03:23:49.565Z,93.43
2022-09-23T03:24:53.751Z,93.43
2022-09-23T03:25:49.588Z,93.23
2022-09-23T03:26:49.529Z,93.18
2022-09-23T03:27:49.715Z,93.18
2022-09-23T03:28:49.681Z,93.08
2022-09-23T03:29:49.725Z,93.12
2022-09-23T03:30:49.709Z,93.02
2022-09-23T03:31:50.015Z,92.97
2022-09-23T03:32:49.708Z,92.67
2022-09-23T03:33:49.707Z,92.36
2022-09-23T03:34:49.911Z,91.70
2022-09-23T03:35:49.799Z,91.64
2022-09-23T03:36:49.809Z,91.60
2022-09-23T03:37:49.828Z,91.39
2022-09-23T03:38:49.924Z,91.19
2022-09-23T03:39:50.358Z,91.08
2022-09-23T03:40:50.021Z,91.08
2022-09-23T03:41:50.018Z,91.08
2022-09-23T03:42:50.208Z,91.23
2022-09-23T03:43:51.093Z,91.44
2022-09-23T03:44:50.114Z,91.53
2022-09-23T03:45:50.254Z,91.85
2022-09-23T03:46:50.181Z,92.05
2022-09-23T03:47:50.297Z,92.05
2022-09-23T03:48:50.266Z,92.05
2022-09-23T03:49:50.424Z,91.85
2022-09-23T03:50:50.805Z,91.60
2022-09-23T03:51:50.437Z,91.49
2022-09-23T03:52:50.405Z,91.29
2022-09-23T03:53:50.539Z,91.19
2022-09-23T03:54:50.474Z,90.88
2022-09-23T03:55:50.513Z,90.78
2022-09-23T03:56:50.468Z,90.88
2022-09-23T03:57:50.593Z,90.98
2022-09-23T03:58:50.618Z,90.88
2022-09-23T03:59:51.397Z,90.78
2022-09-23T04:00:50.589Z,90.67
2022-09-23T04:01:50.705Z,90.67
2022-09-23T04:02:50.828Z,90.57
2022-09-23T04:03:50.737Z,90.57
2022-09-23T04:04:50.630Z,90.47
2022-09-23T04:05:50.664Z,90.57
2022-09-23T04:06:50.826Z,90.78
2022-09-23T04:07:50.726Z,90.67
2022-09-23T04:08:51.731Z,90.78
2022-09-23T04:09:50.916Z,90.98
2022-09-23T04:10:54.741Z,91.23
2022-09-23T04:16:09.602Z,91.60
2022-09-23T04:17:08.764Z,91.49
2022-09-23T04:18:08.785Z,91.49
2022-09-23T04:19:11.596Z,91.70
2022-09-23T04:20:08.820Z,91.74
2022-09-23T04:21:08.854Z,91.85
2022-09-23T04:22:17.030Z,91.74
2022-09-23T04:23:08.876Z,91.74
2022-09-23T04:24:09.032Z,91.85
2022-09-23T04:25:09.017Z,92.05
2022-09-23T04:26:09.100Z,92.16
2022-09-23T04:27:09.157Z,92.05
2022-09-23T04:28:09.179Z,92.05
2022-09-23T04:29:09.150Z,91.95
2022-09-23T04:30:09.215Z,92.20
2022-09-23T04:31:09.324Z,92.46
2022-09-23T04:32:09.414Z,92.36
2022-09-23T04:33:09.305Z,92.25
2022-09-23T04:34:09.327Z,92.25
2022-09-23T04:35:09.416Z,92.25
2022-09-23T04:36:09.423Z,92.25
2022-09-23T04:37:09.347Z,92.46
2022-09-23T04:38:09.490Z,92.40
2022-09-23T04:39:09.607Z,92.40
2022-09-23T04:40:09.648Z,92.71
2022-09-23T04:41:09.615Z,92.92
2022-09-23T04:42:09.530Z,93.02
2022-09-23T04:43:13.456Z,93.23
2022-09-23T04:44:09.612Z,93.54
2022-09-23T04:45:09.624Z,93.64
2022-09-23T04:46:09.622Z,93.54
2022-09-23T04:47:09.623Z,93.79
2022-09-23T04:48:09.635Z,93.88
2022-09-23T04:49:09.770Z,94.09
2022-09-23T04:50:09.685Z,94.09
2022-09-23T04:51:09.689Z,94.20
2022-09-23T04:52:09.711Z,94.30
2022-09-23T04:53:09.729Z,94.51
2022-09-23T04:54:09.787Z,94.60
2022-09-23T04:55:11.352Z,94.71
2022-09-23T04:56:09.817Z,94.81
2022-09-23T04:57:09.846Z,94.81
2022-09-23T04:58:09.885Z,94.81
2022-09-23T04:59:10.019Z,94.92
2022-09-23T05:00:09.943Z,95.02
2022-09-23T05:01:09.984Z,95.02
2022-09-23T05:02:10.097Z,95.02
2022-09-23T05:03:10.003Z,94.92
2022-09-23T05:04:10.042Z,94.71
2022-09-23T05:05:10.026Z,94.60
2022-09-23T05:06:10.045Z,94.60
2022-09-23T05:07:10.067Z,94.40
2022-09-23T05:08:10.100Z,94.51
2022-09-23T05:09:10.142Z,94.51
2022-09-23T05:10:10.136Z,94.51
2022-09-23T05:11:10.134Z,94.51
2022-09-23T05:12:10.217Z,94.40
2022-09-23T05:13:10.225Z,94.40
2022-09-23T05:14:10.236Z,94.51
2022-09-23T05:15:10.249Z,94.40
2022-09-23T05:16:10.311Z,94.30
2022-09-23T05:17:10.288Z,94.15
2022-09-23T05:18:10.257Z,93.95
2022-09-23T05:19:10.346Z,93.84
2022-09-23T05:20:10.390Z,93.64
2022-09-23T05:21:10.427Z,93.54
2022-09-23T05:22:10.446Z,93.12
2022-09-23T05:23:10.459Z,93.12
2022-09-23T05:24:10.478Z,93.12
2022-09-23T05:25:10.520Z,93.23
2022-09-23T05:26:10.568Z,93.23
2022-09-23T05:27:10.619Z,93.12
2022-09-23T05:28:10.639Z,92.82
2022-09-23T05:29:10.712Z,92.57
2022-09-23T05:30:10.709Z,92.40
2022-09-23T05:31:12.133Z,92.25
2022-09-23T05:32:10.820Z,92.36
2022-09-23T05:33:10.850Z,92.25
2022-09-23T05:34:10.901Z,92.25
2022-09-23T05:35:10.941Z,92.30
2022-09-23T05:36:10.991Z,92.40
2022-09-23T05:37:11.011Z,92.71
2022-09-23T05:38:11.006Z,92.82
2022-09-23T05:39:11.086Z,92.82
2022-09-23T05:40:11.162Z,92.61
2022-09-23T05:41:11.150Z,92.50
2022-09-23T05:42:11.154Z,92.61
2022-09-23T05:43:11.142Z,92.71
2022-09-23T05:44:11.172Z,92.50
2022-09-23T05:45:11.234Z,92.40
2022-09-23T05:46:11.259Z,92.30
2022-09-23T05:47:11.303Z,92.30
2022-09-23T05:48:11.343Z,92.30
2022-09-23T05:49:11.420Z,92.36
2022-09-23T05:50:11.415Z,91.85
2022-09-23T05:51:11.414Z,91.53
2022-09-23T05:52:11.484Z,91.29
2022-09-23T05:53:11.525Z,91.08
2022-09-23T05:54:11.565Z,91.08
2022-09-23T05:55:11.615Z,90.98
2022-09-23T05:56:11.615Z,90.98
2022-09-23T05:57:11.719Z,90.88
2022-09-23T05:58:11.725Z,90.88
2022-09-23T05:59:11.756Z,90.78
2022-09-23T06:00:11.775Z,90.78
2022-09-23T06:01:11.776Z,90.67
2022-09-23T06:02:11.913Z,90.36
2022-09-23T06:03:11.943Z,90.16
2022-09-23T06:04:11.936Z,89.81
2022-09-23T06:05:11.947Z,89.50
2022-09-23T06:06:11.980Z,89.29
2022-09-23T06:07:12.047Z,89.09
2022-09-23T06:08:12.097Z,88.84
2022-09-23T06:09:12.141Z,88.64
2022-09-23T06:10:12.150Z,88.53
2022-09-23T06:11:12.170Z,88.33
2022-09-23T06:12:12.199Z,88.12
2022-09-23T06:13:12.239Z,87.92
2022-09-23T06:14:12.270Z,87.82
2022-09-23T06:15:12.287Z,87.67
2022-09-23T06:16:12.396Z,87.57
2022-09-23T06:17:12.360Z,87.57
2022-09-23T06:18:12.390Z,87.37
2022-09-23T06:19:12.429Z,87.26
2022-09-23T06:20:12.420Z,86.95
2022-09-23T06:21:12.501Z,86.81
2022-09-23T06:22:12.461Z,86.50
2022-09-23T06:23:12.482Z,86.40
2022-09-23T06:24:17.017Z,86.15
2022-09-23T06:25:12.533Z,85.95
2022-09-23T06:26:12.552Z,85.64
2022-09-23T06:27:12.592Z,85.54
2022-09-23T06:28:12.662Z,85.19
2022-09-23T06:29:12.643Z,84.68
2022-09-23T06:30:12.643Z,83.98
2022-09-23T06:31:13.704Z,83.03
2022-09-23T06:32:12.684Z,82.68
2022-09-23T06:33:12.692Z,81.21
2022-09-23T06:34:13.927Z,79.84
2022-09-23T06:35:23.236Z,79.88
2022-09-23T06:36:23.210Z,79.98
2022-09-23T06:37:19.632Z,79.70
2022-09-23T06:38:13.708Z,77.79
2022-09-23T06:39:12.967Z,76.05
2022-09-23T06:40:13.746Z,74.08
2022-09-23T06:41:13.877Z,72.89
2022-09-23T06:42:13.064Z,72.38
2022-09-23T06:43:13.081Z,70.99
2022-09-23T06:44:13.105Z,69.91
2022-09-23T06:45:14.121Z,68.83
2022-09-23T06:46:14.076Z,67.50
2022-09-23T06:47:13.241Z,65.85
2022-09-23T06:48:13.243Z,65.65
2022-09-23T06:49:13.284Z,65.79
2022-09-23T06:50:13.423Z,64.79
2022-09-23T06:51:13.339Z,63.13
2022-09-23T06:52:13.414Z,61.62
2022-09-23T06:53:13.321Z,62.59
2022-09-23T06:54:13.420Z,62.92
2022-09-23T06:55:13.384Z,64.43
2022-09-23T06:56:14.114Z,65.07
2022-09-23T06:57:13.610Z,66.19
2022-09-23T06:58:13.682Z,65.75
2022-09-23T06:59:13.574Z,64.17
2022-09-23T07:00:13.746Z,63.32
2022-09-23T07:01:13.670Z,62.69
2022-09-23T07:02:13.695Z,62.05
2022-09-23T07:03:13.810Z,61.72
2022-09-23T07:04:13.767Z,61.39
2022-09-23T07:05:13.845Z,60.02
2022-09-23T07:06:13.778Z,59.71
2022-09-23T07:07:13.840Z,59.84
2022-09-23T07:08:13.954Z,59.84
2022-09-23T07:09:13.970Z,61.19
2022-09-23T07:10:13.955Z,60.77
2022-09-23T07:11:13.958Z,63.49
2022-09-23T07:12:13.943Z,64.33
2022-09-23T07:13:16.314Z,65.34
2022-09-23T07:14:14.042Z,64.50
2022-09-23T07:15:14.093Z,64.94
2022-09-23T07:16:14.166Z,64.84
2022-09-23T07:17:14.135Z,65.17
2022-09-23T07:18:14.174Z,65.61
2022-09-23T07:19:14.213Z,65.41
2022-09-23T07:20:14.326Z,65.78
2022-09-23T07:21:14.315Z,65.27
2022-09-23T07:22:14.366Z,65.48
2022-09-23T07:23:14.524Z,65.04
2022-09-23T07:24:14.582Z,65.04
2022-09-23T07:25:14.391Z,64.81
2022-09-23T07:26:14.439Z,64.40
2022-09-23T07:27:15.230Z,64.10
2022-09-23T07:28:14.551Z,63.53
2022-09-23T07:29:14.457Z,63.82
2022-09-23T07:30:23.742Z,64.84
2022-09-23T07:31:15.086Z,65.51
2022-09-23T07:32:14.832Z,67.10
2022-09-23T07:33:29.736Z,68.14
2022-09-23T07:34:21.291Z,69.23
2022-09-23T07:35:15.570Z,70.01
2022-09-23T07:36:14.573Z,68.11
2022-09-23T07:37:14.762Z,67.00
2022-09-23T07:38:14.742Z,65.55
2022-09-23T07:39:14.755Z,64.17
2022-09-23T07:40:15.491Z,62.82
2022-09-23T07:41:14.801Z,62.52
2022-09-23T07:42:14.832Z,63.76
2022-09-23T07:43:14.961Z,64.17
2022-09-23T07:44:14.958Z,62.99
2022-09-23T07:45:14.956Z,61.95
2022-09-23T07:46:15.029Z,61.29
2022-09-23T07:47:14.956Z,61.41
2022-09-23T07:48:15.845Z,61.32
2022-09-23T07:49:18.134Z,60.81
2022-09-23T07:50:15.962Z,60.81
2022-09-23T07:51:14.988Z,60.58
2022-09-23T07:52:15.057Z,59.78
2022-09-23T07:53:14.951Z,58.09
2022-09-23T07:54:15.969Z,56.20
2022-09-23T07:55:18.881Z,55.01
2022-09-23T07:56:15.040Z,55.84
2022-09-23T07:57:15.091Z,56.88
2022-09-23T07:58:15.198Z,57.03
2022-09-23T07:59:15.154Z,57.54
2022-09-23T08:00:15.659Z,57.36
2022-09-23T08:01:15.310Z,58.86
2022-09-23T08:02:15.225Z,60.33
2022-09-23T08:03:15.316Z,61.01
2022-09-23T08:04:15.284Z,60.48
2022-09-23T08:05:15.489Z,59.94
2022-09-23T08:06:15.429Z,58.87
2022-09-23T08:07:15.426Z,58.52
2022-09-23T08:08:15.408Z,57.89
2022-09-23T08:09:15.386Z,56.88
2022-09-23T08:10:15.488Z,58.14
2022-09-23T08:11:15.541Z,58.54
2022-09-23T08:12:16.274Z,57.78
2022-09-23T08:13:15.540Z,56.65
2022-09-23T08:14:15.602Z,56.42
2022-09-23T08:15:15.607Z,56.27
2022-09-23T08:16:15.767Z,53.95
2022-09-23T08:17:15.786Z,55.74
2022-09-23T08:18:15.631Z,56.90
2022-09-23T08:19:15.712Z,57.64
2022-09-23T08:20:15.685Z,58.27
2022-09-23T08:21:15.722Z,58.78
2022-09-23T08:22:15.763Z,58.98
2022-09-23T08:23:15.846Z,59.51
2022-09-23T08:24:15.936Z,59.02
2022-09-23T08:25:16.738Z,57.05
2022-09-23T08:26:20.793Z,56.29
2022-09-23T08:27:15.932Z,57.28
2022-09-23T08:28:16.039Z,57.65
2022-09-23T08:29:16.072Z,56.45
2022-09-23T08:30:16.942Z,57.28
2022-09-23T08:31:17.686Z,56.92
2022-09-23T08:32:16.942Z,55.94
2022-09-23T08:33:22.525Z,55.66
2022-09-23T08:34:16.827Z,55.06
2022-09-23T08:35:16.179Z,55.21
2022-09-23T08:36:16.220Z,56.55
2022-09-23T08:37:16.160Z,55.66
2022-09-23T08:38:16.141Z,54.68
2022-09-23T08:39:16.199Z,53.17
2022-09-23T08:40:16.346Z,51.21
2022-09-23T08:41:16.324Z,50.74
2022-09-23T08:42:16.411Z,50.86
2022-09-23T08:43:16.479Z,52.55
2022-09-23T08:44:16.385Z,54.15
2022-09-23T08:45:16.370Z,52.26
2022-09-23T08:46:17.331Z,50.29
2022-09-23T08:47:17.366Z,50.76
2022-09-23T08:48:16.543Z,49.37
2022-09-23T08:49:16.589Z,49.22
2022-09-23T08:50:16.607Z,48.89
2022-09-23T08:51:16.688Z,49.84
2022-09-23T08:52:17.516Z,49.84
2022-09-23T08:53:16.795Z,50.71
2022-09-23T08:54:16.740Z,51.59
2022-09-23T08:55:16.920Z,53.52
2022-09-23T08:56:16.920Z,55.79
2022-09-23T08:57:16.838Z,56.92
2022-09-23T08:58:25.713Z,55.63
2022-09-23T08:59:16.911Z,55.13
2022-09-23T09:00:16.968Z,55.51
2022-09-23T09:01:17.174Z,55.38
2022-09-23T09:02:17.853Z,53.52
2022-09-23T09:03:17.153Z,53.14
2022-09-23T09:04:17.087Z,55.31
2022-09-23T09:05:17.211Z,55.63
2022-09-23T09:06:17.193Z,55.31
2022-09-23T09:07:36.715Z,55.26
2022-09-23T09:08:17.260Z,54.20
2022-09-23T09:09:17.418Z,53.12
2022-09-23T09:10:17.412Z,53.32
2022-09-23T09:11:17.471Z,53.75
2022-09-23T09:12:17.388Z,53.88
2022-09-23T09:13:17.452Z,54.78
2022-09-23T09:14:17.516Z,55.21
2022-09-23T09:15:17.491Z,54.30
2022-09-23T09:16:23.889Z,52.94
2022-09-23T09:17:17.627Z,51.97
2022-09-23T09:18:17.621Z,50.87
2022-09-23T09:19:17.696Z,51.42
2022-09-23T09:20:17.780Z,52.29
2022-09-23T09:21:17.778Z,53.00
2022-09-23T09:22:17.776Z,52.97
2022-09-23T09:23:17.904Z,52.04
2022-09-23T09:24:17.905Z,52.75
2022-09-23T09:25:18.048Z,53.19
2022-09-23T09:26:17.951Z,51.84
2022-09-23T09:27:18.899Z,53.55
2022-09-23T09:28:17.954Z,54.75
2022-09-23T09:29:34.085Z,54.02
2022-09-23T09:30:18.140Z,54.78
2022-09-23T09:31:18.865Z,54.98
2022-09-23T09:32:18.200Z,56.34
2022-09-23T09:33:18.152Z,57.60
2022-09-23T09:34:20.314Z,57.24
2022-09-23T09:35:18.553Z,56.71
2022-09-23T09:36:18.410Z,56.97
2022-09-23T09:37:18.299Z,57.98
2022-09-23T09:38:18.338Z,57.85
2022-09-23T09:39:20.793Z,57.29
2022-09-23T09:40:18.454Z,55.63
2022-09-23T09:41:18.334Z,54.50
2022-09-23T09:42:18.593Z,53.55
2022-09-23T09:43:18.582Z,52.09
2022-09-23T09:44:18.421Z,52.57
2022-09-23T09:45:19.744Z,54.45
2022-09-23T09:46:18.704Z,54.93
2022-09-23T09:47:18.455Z,55.03
2022-09-23T09:48:19.295Z,53.67
2022-09-23T09:49:18.566Z,53.80
2022-09-23T09:50:18.774Z,54.63
2022-09-23T09:51:18.674Z,54.80
2022-09-23T09:52:18.725Z,54.27
2022-09-23T09:53:18.721Z,54.55
2022-09-23T09:54:18.714Z,52.72
2022-09-23T09:55:18.790Z,53.64
2022-09-23T09:56:18.855Z,53.82
2022-09-23T09:57:18.906Z,53.52
2022-09-23T09:58:18.972Z,53.30
2022-09-23T09:59:19.033Z,53.07
2022-09-23T10:00:19.103Z,52.07
2022-09-23T10:01:19.171Z,52.27
2022-09-23T10:02:19.322Z,51.52
2022-09-23T10:03:19.116Z,51.42
2022-09-23T10:04:19.194Z,50.59
2022-09-23T10:05:19.177Z,50.70
2022-09-23T10:06:20.165Z,50.22
2022-09-23T10:07:19.257Z,51.04
2022-09-23T10:08:19.241Z,50.42
2022-09-23T10:09:19.313Z,51.14
2022-09-23T10:10:31.794Z,52.34
2022-09-23T10:11:19.267Z,52.12
2022-09-23T10:12:19.282Z,53.64
2022-09-23T10:13:19.328Z,54.05
2022-09-23T10:14:19.378Z,54.50
2022-09-23T10:15:19.382Z,55.53
2022-09-23T10:16:20.563Z,55.96
2022-09-23T10:17:19.474Z,56.96
2022-09-23T10:18:19.489Z,56.23
2022-09-23T10:19:19.553Z,56.10
2022-09-23T10:20:19.526Z,55.88
2022-09-23T10:21:21.273Z,55.45
2022-09-23T10:22:19.657Z,55.43
2022-09-23T10:23:19.601Z,54.97
2022-09-23T10:24:19.600Z,53.37
2022-09-23T10:25:19.595Z,52.69
2022-09-23T10:26:19.636Z,54.05
2022-09-23T10:27:19.607Z,54.45
2022-09-23T10:28:19.643Z,54.58
2022-09-23T10:29:19.652Z,55.20
2022-09-23T10:30:19.710Z,56.13
2022-09-23T10:31:19.734Z,54.45
2022-09-23T10:32:19.765Z,55.13
2022-09-23T10:33:19.838Z,54.60
2022-09-23T10:34:19.766Z,54.38
2022-09-23T10:35:19.774Z,54.25
2022-09-23T10:36:19.896Z,54.85
2022-09-23T10:37:19.904Z,55.51
2022-09-23T10:38:19.874Z,56.03
2022-09-23T10:39:20.041Z,56.23
2022-09-23T10:40:20.040Z,56.63
2022-09-23T10:41:19.965Z,56.21
2022-09-23T10:42:19.966Z,55.60
2022-09-23T10:43:20.862Z,54.97
2022-09-23T10:44:20.064Z,54.52
2022-09-23T10:45:20.133Z,53.75
2022-09-23T10:46:20.112Z,54.25
2022-09-23T10:47:20.049Z,53.75
2022-09-23T10:48:20.104Z,54.05
2022-09-23T10:49:20.133Z,54.05
2022-09-23T10:50:20.365Z,54.38
2022-09-23T10:51:25.476Z,53.90
2022-09-23T10:52:20.226Z,55.03
2022-09-23T10:53:20.228Z,55.71
2022-09-23T10:54:20.257Z,55.00
2022-09-23T10:55:20.274Z,54.47
2022-09-23T10:56:20.281Z,54.88
2022-09-23T10:57:20.309Z,55.45
2022-09-23T10:58:20.315Z,54.38
2022-09-23T10:59:20.382Z,51.37
2022-09-23T11:00:20.421Z,52.49
2022-09-23T11:01:20.548Z,52.59
2022-09-23T11:02:20.503Z,51.01
2022-09-23T11:03:20.544Z,51.64
2022-09-23T11:04:20.869Z,52.74
2022-09-23T11:05:20.676Z,52.82
2022-09-23T11:06:20.686Z,53.72
2022-09-23T11:07:21.000Z,53.09
2022-09-23T11:08:20.786Z,51.79
2022-09-23T11:09:20.904Z,52.42
2022-09-23T11:10:35.430Z,53.00
2022-09-23T11:11:20.796Z,50.61
2022-09-23T11:12:20.852Z,51.11
2022-09-23T11:13:21.030Z,50.81
2022-09-23T11:14:20.892Z,50.11
2022-09-23T11:15:20.932Z,50.23
2022-09-23T11:16:20.952Z,51.51
2022-09-23T11:17:20.988Z,51.21
2022-09-23T11:18:21.026Z,52.12
2022-09-23T11:19:21.076Z,50.38
2022-09-23T11:20:21.106Z,49.98
2022-09-23T11:21:21.137Z,50.46
2022-09-23T11:22:21.189Z,50.06
2022-09-23T11:23:21.198Z,51.59
2022-09-23T11:24:21.244Z,51.97
2022-09-23T11:25:21.249Z,51.54
2022-09-23T11:26:21.242Z,49.63
2022-09-23T11:27:21.270Z,49.46
2022-09-23T11:28:21.271Z,51.06
2022-09-23T11:29:21.315Z,49.38
2022-09-23T11:30:21.316Z,50.16
2022-09-23T11:31:21.387Z,49.43
2022-09-23T11:32:21.389Z,49.93
2022-09-23T11:33:21.405Z,49.76
2022-09-23T11:34:21.706Z,51.34
2022-09-23T11:35:21.417Z,50.01
2022-09-23T11:36:21.465Z,47.93
2022-09-23T11:37:21.474Z,49.46
2022-09-23T11:38:21.593Z,49.98
2022-09-23T11:39:21.511Z,49.48
2022-09-23T11:40:21.569Z,49.98
2022-09-23T11:41:21.569Z,49.68
2022-09-23T11:42:21.639Z,48.08
2022-09-23T11:43:21.629Z,48.48
2022-09-23T11:44:21.584Z,49.48
2022-09-23T11:45:21.562Z,48.68
2022-09-23T11:46:21.586Z,49.28
2022-09-23T11:47:21.687Z,48.98
2022-09-23T11:48:21.644Z,48.28
2022-09-23T11:49:21.681Z,49.16
2022-09-23T11:50:21.792Z,48.43
2022-09-23T11:51:21.741Z,48.73
2022-09-23T11:52:21.846Z,47.25
2022-09-23T11:53:21.821Z,48.18
2022-09-23T11:54:21.983Z,48.60
2022-09-23T11:55:23.350Z,48.83
2022-09-23T11:56:32.549Z,48.55
2022-09-23T11:57:22.015Z,48.25
2022-09-23T11:58:25.943Z,49.15
2022-09-23T11:59:30.983Z,50.26
2022-09-23T12:00:22.054Z,50.03
2022-09-23T12:01:31.312Z,49.21
2022-09-23T12:02:25.659Z,49.40
2022-09-23T12:03:24.971Z,49.08
2022-09-23T12:04:22.706Z,47.88
2022-09-23T12:05:22.444Z,47.77
2022-09-23T12:06:22.169Z,47.96
2022-09-23T12:07:22.169Z,47.96
2022-09-23T12:08:22.217Z,47.90
2022-09-23T12:09:40.944Z,48.72
2022-09-23T12:10:22.232Z,48.83
2022-09-23T12:11:22.280Z,49.73
2022-09-23T12:12:26.849Z,48.72
2022-09-23T12:13:22.336Z,49.10
2022-09-23T12:14:22.418Z,49.40
2022-09-23T12:15:22.394Z,50.43
2022-09-23T12:16:22.451Z,49.22
2022-09-23T12:17:22.399Z,49.33
2022-09-23T12:18:23.374Z,49.10
2022-09-23T12:19:22.562Z,49.21
2022-09-23T12:20:22.507Z,49.38
2022-09-23T12:21:48.726Z,49.98
2022-09-23T12:22:22.594Z,49.28
2022-09-23T12:23:22.636Z,48.58
2022-09-23T12:24:22.547Z,48.78
2022-09-23T12:25:22.585Z,49.51
2022-09-23T12:26:22.781Z,49.43
2022-09-23T12:27:22.849Z,50.13
2022-09-23T12:28:22.752Z,50.23
2022-09-23T12:29:22.814Z,50.93
2022-09-23T12:30:22.942Z,48.70
2022-09-23T12:31:22.780Z,49.10
2022-09-23T12:32:22.770Z,48.38
2022-09-23T12:33:22.895Z,48.20
2022-09-23T12:34:22.873Z,48.90
2022-09-23T12:35:22.890Z,47.60
2022-09-23T12:36:22.914Z,47.77
2022-09-23T12:37:22.935Z,47.97
2022-09-23T12:38:23.295Z,47.88
2022-09-23T12:39:23.151Z,48.05
2022-09-23T12:40:23.060Z,47.67
2022-09-23T12:41:24.079Z,47.97
2022-09-23T12:42:24.326Z,47.77
2022-09-23T12:43:23.100Z,47.80
2022-09-23T12:44:23.139Z,48.48
2022-09-23T12:45:23.172Z,47.65
2022-09-23T12:46:23.224Z,47.53
2022-09-23T12:47:23.310Z,47.13
2022-09-23T12:48:23.352Z,47.20
2022-09-23T12:49:23.306Z,47.20
2022-09-23T12:50:24.531Z,47.31
2022-09-23T12:51:23.341Z,47.19
2022-09-23T12:52:23.372Z,46.78
2022-09-23T12:53:23.415Z,48.58
2022-09-23T12:54:23.473Z,46.88
2022-09-23T12:55:23.546Z,47.16
2022-09-23T12:56:23.621Z,46.06
2022-09-23T12:57:23.530Z,46.18